sensor_id;sensor_type;location;lat;lon;timestamp;P1;durP1;ratioP1;P2;durP2;ratioP2
26906;SDS011;14472;56.880;16.658;2022-07-29T00:00:45;5.07;;;1.48;;
26906;SDS011;14472;56.880;16.658;2022-07-29T00:03:11;4.47;;;1.73;;
26906;SDS011;14472;56.880;16.658;2022-07-29T00:05:40;3.63;;;1.50;;
26906;SDS011;14472;56.880;16.658;2022-07-29T00:08:07;1.53;;;1.10;;
26906;SDS011;14472;56.880;16.658;2022-07-29T00:10:46;2.60;;;1.02;;
26906;SDS011;14472;56.880;16.658;2022-07-29T00:13:12;2.55;;;1.63;;
26906;SDS011;14472;56.880;16.658;2022-07-29T00:15:37;4.60;;;1.60;;
26906;SDS011;14472;56.880;16.658;2022-07-29T00:18:03;2.20;;;1.40;;
26906;SDS011;14472;56.880;16.658;2022-07-29T00:20:29;1.95;;;1.10;;
26906;SDS011;14472;56.880;16.658;2022-07-29T00:22:55;1.90;;;1.30;;
26906;SDS011;14472;56.880;16.658;2022-07-29T00:25:21;2.42;;;1.35;;
26906;SDS011;14472;56.880;16.658;2022-07-29T00:27:59;2.80;;;1.63;;
26906;SDS011;14472;56.880;16.658;2022-07-29T00:30:24;6.88;;;1.30;;
26906;SDS011;14472;56.880;16.658;2022-07-29T00:32:50;2.87;;;1.53;;
26906;SDS011;14472;56.880;16.658;2022-07-29T00:35:16;3.50;;;1.83;;
26906;SDS011;14472;56.880;16.658;2022-07-29T00:38:00;4.33;;;1.40;;
26906;SDS011;14472;56.880;16.658;2022-07-29T00:40:26;2.03;;;1.27;;
26906;SDS011;14472;56.880;16.658;2022-07-29T00:42:57;2.20;;;1.13;;
26906;SDS011;14472;56.880;16.658;2022-07-29T00:45:23;2.47;;;1.73;;
26906;SDS011;14472;56.880;16.658;2022-07-29T00:47:49;3.03;;;1.43;;
26906;SDS011;14472;56.880;16.658;2022-07-29T00:50:15;2.80;;;1.80;;
26906;SDS011;14472;56.880;16.658;2022-07-29T00:52:41;4.23;;;1.77;;
26906;SDS011;14472;56.880;16.658;2022-07-29T00:55:14;4.57;;;1.53;;
26906;SDS011;14472;56.880;16.658;2022-07-29T01:00:46;2.87;;;1.77;;
26906;SDS011;14472;56.880;16.658;2022-07-29T01:03:12;3.33;;;1.50;;
26906;SDS011;14472;56.880;16.658;2022-07-29T01:05:37;3.90;;;1.53;;
26906;SDS011;14472;56.880;16.658;2022-07-29T01:08:05;3.67;;;1.43;;
26906;SDS011;14472;56.880;16.658;2022-07-29T01:10:32;2.17;;;1.40;;
26906;SDS011;14472;56.880;16.658;2022-07-29T01:12:58;4.07;;;1.60;;
26906;SDS011;14472;56.880;16.658;2022-07-29T01:15:26;5.00;;;1.57;;
26906;SDS011;14472;56.880;16.658;2022-07-29T01:31:30;5.47;;;1.77;;
26906;SDS011;14472;56.880;16.658;2022-07-29T01:34:04;2.27;;;1.50;;
26906;SDS011;14472;56.880;16.658;2022-07-29T01:36:54;3.77;;;1.70;;
26906;SDS011;14472;56.880;16.658;2022-07-29T01:39:32;5.33;;;1.67;;
26906;SDS011;14472;56.880;16.658;2022-07-29T01:47:40;3.93;;;1.40;;
26906;SDS011;14472;56.880;16.658;2022-07-29T01:50:12;4.07;;;1.50;;
26906;SDS011;14472;56.880;16.658;2022-07-29T01:52:44;1.83;;;1.50;;
26906;SDS011;14472;56.880;16.658;2022-07-29T01:55:17;2.20;;;1.67;;
26906;SDS011;14472;56.880;16.658;2022-07-29T01:57:47;3.17;;;1.40;;
26906;SDS011;14472;56.880;16.658;2022-07-29T02:00:14;3.17;;;1.53;;
26906;SDS011;14472;56.880;16.658;2022-07-29T02:02:42;5.50;;;1.80;;
26906;SDS011;14472;56.880;16.658;2022-07-29T02:05:12;2.80;;;1.30;;
26906;SDS011;14472;56.880;16.658;2022-07-29T02:07:40;2.87;;;1.30;;
26906;SDS011;14472;56.880;16.658;2022-07-29T02:10:08;2.67;;;1.40;;
26906;SDS011;14472;56.880;16.658;2022-07-29T02:12:37;4.57;;;1.80;;
26906;SDS011;14472;56.880;16.658;2022-07-29T02:15:04;1.50;;;1.10;;
26906;SDS011;14472;56.880;16.658;2022-07-29T02:17:38;1.90;;;1.47;;
26906;SDS011;14472;56.880;16.658;2022-07-29T02:20:16;2.77;;;1.30;;
26906;SDS011;14472;56.880;16.658;2022-07-29T02:22:42;3.00;;;1.50;;
26906;SDS011;14472;56.880;16.658;2022-07-29T02:25:10;2.67;;;1.50;;
26906;SDS011;14472;56.880;16.658;2022-07-29T02:27:37;2.60;;;1.43;;
26906;SDS011;14472;56.880;16.658;2022-07-29T02:30:05;2.63;;;1.57;;
26906;SDS011;14472;56.880;16.658;2022-07-29T02:32:32;2.53;;;1.50;;
26906;SDS011;14472;56.880;16.658;2022-07-29T02:35:01;1.77;;;1.63;;
26906;SDS011;14472;56.880;16.658;2022-07-29T02:37:27;2.80;;;1.87;;
26906;SDS011;14472;56.880;16.658;2022-07-29T02:39:55;2.10;;;1.50;;
26906;SDS011;14472;56.880;16.658;2022-07-29T02:42:23;5.90;;;1.50;;
26906;SDS011;14472;56.880;16.658;2022-07-29T02:44:51;2.17;;;1.50;;
26906;SDS011;14472;56.880;16.658;2022-07-29T02:50:11;2.03;;;1.60;;
26906;SDS011;14472;56.880;16.658;2022-07-29T02:52:52;2.10;;;1.70;;
26906;SDS011;14472;56.880;16.658;2022-07-29T02:55:40;2.10;;;1.67;;
26906;SDS011;14472;56.880;16.658;2022-07-29T02:58:15;1.60;;;1.50;;
26906;SDS011;14472;56.880;16.658;2022-07-29T03:00:53;3.53;;;2.00;;
26906;SDS011;14472;56.880;16.658;2022-07-29T03:03:22;2.70;;;1.80;;
26906;SDS011;14472;56.880;16.658;2022-07-29T03:05:54;2.97;;;1.70;;
26906;SDS011;14472;56.880;16.658;2022-07-29T03:08:21;1.50;;;1.40;;
26906;SDS011;14472;56.880;16.658;2022-07-29T03:10:48;2.53;;;1.80;;
26906;SDS011;14472;56.880;16.658;2022-07-29T03:13:15;2.23;;;2.03;;
26906;SDS011;14472;56.880;16.658;2022-07-29T03:15:44;2.23;;;2.03;;
26906;SDS011;14472;56.880;16.658;2022-07-29T03:18:11;2.73;;;2.30;;
26906;SDS011;14472;56.880;16.658;2022-07-29T03:20:37;2.63;;;2.33;;
26906;SDS011;14472;56.880;16.658;2022-07-29T03:23:03;2.57;;;2.37;;
26906;SDS011;14472;56.880;16.658;2022-07-29T03:25:29;2.63;;;2.30;;
26906;SDS011;14472;56.880;16.658;2022-07-29T03:27:56;2.80;;;2.20;;
26906;SDS011;14472;56.880;16.658;2022-07-29T03:30:22;2.03;;;1.93;;
26906;SDS011;14472;56.880;16.658;2022-07-29T03:32:49;1.80;;;1.70;;
26906;SDS011;14472;56.880;16.658;2022-07-29T03:35:15;1.80;;;1.70;;
26906;SDS011;14472;56.880;16.658;2022-07-29T03:37:44;2.00;;;1.80;;
26906;SDS011;14472;56.880;16.658;2022-07-29T03:40:11;1.53;;;1.43;;
26906;SDS011;14472;56.880;16.658;2022-07-29T03:43:00;1.53;;;1.43;;
26906;SDS011;14472;56.880;16.658;2022-07-29T03:45:27;2.10;;;1.80;;
26906;SDS011;14472;56.880;16.658;2022-07-29T03:47:57;1.60;;;1.50;;
26906;SDS011;14472;56.880;16.658;2022-07-29T03:50:30;2.03;;;1.80;;
26906;SDS011;14472;56.880;16.658;2022-07-29T03:52:57;1.70;;;1.60;;
26906;SDS011;14472;56.880;16.658;2022-07-29T03:55:25;2.00;;;1.83;;
26906;SDS011;14472;56.880;16.658;2022-07-29T03:57:53;2.13;;;1.63;;
26906;SDS011;14472;56.880;16.658;2022-07-29T04:00:20;2.53;;;1.80;;
26906;SDS011;14472;56.880;16.658;2022-07-29T04:02:48;2.20;;;1.80;;
26906;SDS011;14472;56.880;16.658;2022-07-29T04:05:14;2.40;;;2.10;;
26906;SDS011;14472;56.880;16.658;2022-07-29T04:07:43;3.33;;;2.50;;
26906;SDS011;14472;56.880;16.658;2022-07-29T04:10:09;2.43;;;2.00;;
26906;SDS011;14472;56.880;16.658;2022-07-29T04:12:35;2.00;;;1.80;;
26906;SDS011;14472;56.880;16.658;2022-07-29T04:15:02;3.00;;;1.63;;
26906;SDS011;14472;56.880;16.658;2022-07-29T04:17:28;2.37;;;1.60;;
26906;SDS011;14472;56.880;16.658;2022-07-29T04:19:54;1.70;;;1.60;;
26906;SDS011;14472;56.880;16.658;2022-07-29T04:22:20;2.00;;;1.80;;
26906;SDS011;14472;56.880;16.658;2022-07-29T04:24:45;2.40;;;1.70;;
26906;SDS011;14472;56.880;16.658;2022-07-29T04:27:11;3.23;;;1.73;;
26906;SDS011;14472;56.880;16.658;2022-07-29T04:29:37;1.83;;;1.50;;
26906;SDS011;14472;56.880;16.658;2022-07-29T04:32:03;1.77;;;1.53;;
26906;SDS011;14472;56.880;16.658;2022-07-29T04:34:29;1.70;;;1.30;;
26906;SDS011;14472;56.880;16.658;2022-07-29T04:36:55;2.47;;;1.83;;
26906;SDS011;14472;56.880;16.658;2022-07-29T04:39:21;2.87;;;1.60;;
26906;SDS011;14472;56.880;16.658;2022-07-29T04:41:46;3.30;;;2.67;;
26906;SDS011;14472;56.880;16.658;2022-07-29T04:44:12;2.50;;;2.10;;
26906;SDS011;14472;56.880;16.658;2022-07-29T04:46:46;3.33;;;2.17;;
26906;SDS011;14472;56.880;16.658;2022-07-29T04:49:14;2.60;;;1.60;;
26906;SDS011;14472;56.880;16.658;2022-07-29T04:51:40;2.53;;;1.50;;
26906;SDS011;14472;56.880;16.658;2022-07-29T04:54:06;3.17;;;1.33;;
26906;SDS011;14472;56.880;16.658;2022-07-29T04:56:32;3.27;;;1.67;;
26906;SDS011;14472;56.880;16.658;2022-07-29T04:58:58;2.70;;;1.43;;
26906;SDS011;14472;56.880;16.658;2022-07-29T05:01:24;3.20;;;1.60;;
26906;SDS011;14472;56.880;16.658;2022-07-29T05:03:49;2.07;;;1.60;;
26906;SDS011;14472;56.880;16.658;2022-07-29T05:06:27;2.75;;;1.70;;
26906;SDS011;14472;56.880;16.658;2022-07-29T05:08:52;2.05;;;1.30;;
26906;SDS011;14472;56.880;16.658;2022-07-29T05:11:18;3.88;;;1.80;;
26906;SDS011;14472;56.880;16.658;2022-07-29T05:13:44;2.20;;;1.38;;
26906;SDS011;14472;56.880;16.658;2022-07-29T05:16:10;2.15;;;1.58;;
26906;SDS011;14472;56.880;16.658;2022-07-29T05:18:35;2.75;;;1.52;;
26906;SDS011;14472;56.880;16.658;2022-07-29T05:21:01;2.05;;;1.50;;
26906;SDS011;14472;56.880;16.658;2022-07-29T05:23:27;3.67;;;1.65;;
26906;SDS011;14472;56.880;16.658;2022-07-29T05:25:53;4.93;;;1.30;;
26906;SDS011;14472;56.880;16.658;2022-07-29T05:28:19;1.98;;;1.33;;
26906;SDS011;14472;56.880;16.658;2022-07-29T05:30:44;1.55;;;1.30;;
26906;SDS011;14472;56.880;16.658;2022-07-29T05:33:10;3.28;;;1.48;;
26906;SDS011;14472;56.880;16.658;2022-07-29T05:35:36;1.55;;;1.35;;
26906;SDS011;14472;56.880;16.658;2022-07-29T05:38:02;5.50;;;1.38;;
26906;SDS011;14472;56.880;16.658;2022-07-29T05:40:29;5.45;;;1.88;;
26906;SDS011;14472;56.880;16.658;2022-07-29T05:42:55;4.63;;;1.80;;
26906;SDS011;14472;56.880;16.658;2022-07-29T05:45:21;3.72;;;1.58;;
26906;SDS011;14472;56.880;16.658;2022-07-29T05:47:46;2.60;;;1.60;;
26906;SDS011;14472;56.880;16.658;2022-07-29T05:50:12;3.50;;;1.63;;
26906;SDS011;14472;56.880;16.658;2022-07-29T05:52:38;5.47;;;1.60;;
26906;SDS011;14472;56.880;16.658;2022-07-29T05:55:04;2.33;;;1.50;;
26906;SDS011;14472;56.880;16.658;2022-07-29T05:57:31;3.15;;;1.40;;
26906;SDS011;14472;56.880;16.658;2022-07-29T05:59:57;5.25;;;1.55;;
26906;SDS011;14472;56.880;16.658;2022-07-29T06:02:23;3.92;;;1.40;;
26906;SDS011;14472;56.880;16.658;2022-07-29T06:04:48;4.18;;;1.50;;
26906;SDS011;14472;56.880;16.658;2022-07-29T06:07:14;2.30;;;1.30;;
26906;SDS011;14472;56.880;16.658;2022-07-29T06:09:41;4.03;;;1.52;;
26906;SDS011;14472;56.880;16.658;2022-07-29T06:12:07;5.22;;;1.58;;
26906;SDS011;14472;56.880;16.658;2022-07-29T06:14:33;2.55;;;1.30;;
26906;SDS011;14472;56.880;16.658;2022-07-29T06:17:00;2.20;;;1.13;;
26906;SDS011;14472;56.880;16.658;2022-07-29T06:19:36;2.92;;;1.17;;
26906;SDS011;14472;56.880;16.658;2022-07-29T06:22:02;2.78;;;1.33;;
26906;SDS011;14472;56.880;16.658;2022-07-29T06:24:28;3.38;;;1.25;;
26906;SDS011;14472;56.880;16.658;2022-07-29T06:26:54;2.80;;;1.30;;
26906;SDS011;14472;56.880;16.658;2022-07-29T06:29:23;4.00;;;1.35;;
26906;SDS011;14472;56.880;16.658;2022-07-29T06:31:52;2.85;;;1.08;;
26906;SDS011;14472;56.880;16.658;2022-07-29T06:34:18;3.00;;;1.15;;
26906;SDS011;14472;56.880;16.658;2022-07-29T06:36:44;3.28;;;1.10;;
26906;SDS011;14472;56.880;16.658;2022-07-29T06:39:16;2.40;;;1.10;;
26906;SDS011;14472;56.880;16.658;2022-07-29T06:41:48;3.20;;;1.10;;
26906;SDS011;14472;56.880;16.658;2022-07-29T06:44:14;2.65;;;0.93;;
26906;SDS011;14472;56.880;16.658;2022-07-29T06:46:40;2.30;;;1.10;;
26906;SDS011;14472;56.880;16.658;2022-07-29T06:49:09;3.28;;;1.20;;
26906;SDS011;14472;56.880;16.658;2022-07-29T06:51:38;4.55;;;1.23;;
26906;SDS011;14472;56.880;16.658;2022-07-29T06:54:04;4.20;;;1.40;;
26906;SDS011;14472;56.880;16.658;2022-07-29T06:56:31;3.72;;;1.05;;
26906;SDS011;14472;56.880;16.658;2022-07-29T06:58:57;5.35;;;1.25;;
26906;SDS011;14472;56.880;16.658;2022-07-29T07:01:23;2.78;;;1.00;;
26906;SDS011;14472;56.880;16.658;2022-07-29T07:03:49;6.00;;;1.38;;
26906;SDS011;14472;56.880;16.658;2022-07-29T07:06:14;3.30;;;1.13;;
26906;SDS011;14472;56.880;16.658;2022-07-29T07:08:41;2.97;;;0.88;;
26906;SDS011;14472;56.880;16.658;2022-07-29T07:11:07;1.77;;;1.02;;
26906;SDS011;14472;56.880;16.658;2022-07-29T07:13:33;3.15;;;1.30;;
26906;SDS011;14472;56.880;16.658;2022-07-29T07:16:00;3.28;;;1.02;;
26906;SDS011;14472;56.880;16.658;2022-07-29T07:18:26;1.95;;;1.08;;
26906;SDS011;14472;56.880;16.658;2022-07-29T07:20:53;6.28;;;1.30;;
26906;SDS011;14472;56.880;16.658;2022-07-29T07:23:19;2.25;;;1.13;;
26906;SDS011;14472;56.880;16.658;2022-07-29T07:25:44;5.85;;;1.20;;
26906;SDS011;14472;56.880;16.658;2022-07-29T07:28:10;1.60;;;1.02;;
26906;SDS011;14472;56.880;16.658;2022-07-29T07:30:36;2.90;;;1.25;;
26906;SDS011;14472;56.880;16.658;2022-07-29T07:33:02;3.53;;;1.10;;
26906;SDS011;14472;56.880;16.658;2022-07-29T07:35:28;3.00;;;1.10;;
26906;SDS011;14472;56.880;16.658;2022-07-29T07:37:54;2.47;;;0.93;;
26906;SDS011;14472;56.880;16.658;2022-07-29T07:40:21;1.50;;;1.02;;
26906;SDS011;14472;56.880;16.658;2022-07-29T07:42:47;2.95;;;1.27;;
26906;SDS011;14472;56.880;16.658;2022-07-29T07:45:13;3.92;;;1.20;;
26906;SDS011;14472;56.880;16.658;2022-07-29T07:47:39;2.97;;;1.25;;
26906;SDS011;14472;56.880;16.658;2022-07-29T07:50:05;2.35;;;1.10;;
26906;SDS011;14472;56.880;16.658;2022-07-29T07:52:33;4.03;;;1.10;;
26906;SDS011;14472;56.880;16.658;2022-07-29T07:54:59;4.57;;;1.27;;
26906;SDS011;14472;56.880;16.658;2022-07-29T07:57:25;1.85;;;0.95;;
26906;SDS011;14472;56.880;16.658;2022-07-29T07:59:50;2.28;;;1.02;;
26906;SDS011;14472;56.880;16.658;2022-07-29T08:02:16;3.17;;;1.50;;
26906;SDS011;14472;56.880;16.658;2022-07-29T08:04:42;2.05;;;1.10;;
26906;SDS011;14472;56.880;16.658;2022-07-29T08:07:08;2.97;;;1.10;;
26906;SDS011;14472;56.880;16.658;2022-07-29T08:09:34;2.15;;;1.05;;
26906;SDS011;14472;56.880;16.658;2022-07-29T08:12:00;2.50;;;1.02;;
26906;SDS011;14472;56.880;16.658;2022-07-29T08:14:30;3.70;;;1.17;;
26906;SDS011;14472;56.880;16.658;2022-07-29T08:16:57;2.05;;;1.02;;
26906;SDS011;14472;56.880;16.658;2022-07-29T08:19:23;1.55;;;0.90;;
26906;SDS011;14472;56.880;16.658;2022-07-29T08:21:48;1.52;;;0.85;;
26906;SDS011;14472;56.880;16.658;2022-07-29T08:24:14;2.63;;;0.90;;
26906;SDS011;14472;56.880;16.658;2022-07-29T08:26:58;2.58;;;0.80;;
26906;SDS011;14472;56.880;16.658;2022-07-29T08:29:24;2.33;;;1.00;;
26906;SDS011;14472;56.880;16.658;2022-07-29T08:31:50;1.65;;;0.80;;
26906;SDS011;14472;56.880;16.658;2022-07-29T08:34:16;3.22;;;0.70;;
26906;SDS011;14472;56.880;16.658;2022-07-29T08:36:41;0.60;;;0.60;;
26906;SDS011;14472;56.880;16.658;2022-07-29T08:39:07;1.58;;;1.05;;
26906;SDS011;14472;56.880;16.658;2022-07-29T08:41:33;1.83;;;0.70;;
26906;SDS011;14472;56.880;16.658;2022-07-29T08:44:00;2.13;;;1.00;;
26906;SDS011;14472;56.880;16.658;2022-07-29T08:46:25;2.05;;;0.80;;
26906;SDS011;14472;56.880;16.658;2022-07-29T08:48:51;1.08;;;0.63;;
26906;SDS011;14472;56.880;16.658;2022-07-29T08:51:18;1.77;;;0.65;;
26906;SDS011;14472;56.880;16.658;2022-07-29T08:53:46;1.52;;;0.80;;
26906;SDS011;14472;56.880;16.658;2022-07-29T08:56:14;2.03;;;0.80;;
26906;SDS011;14472;56.880;16.658;2022-07-29T08:58:44;0.85;;;0.80;;
26906;SDS011;14472;56.880;16.658;2022-07-29T09:01:11;1.13;;;0.82;;
26906;SDS011;14472;56.880;16.658;2022-07-29T09:03:41;2.28;;;0.77;;
26906;SDS011;14472;56.880;16.658;2022-07-29T09:06:12;0.88;;;0.80;;
26906;SDS011;14472;56.880;16.658;2022-07-29T09:08:39;1.90;;;0.77;;
26906;SDS011;14472;56.880;16.658;2022-07-29T09:11:06;0.80;;;0.50;;
26906;SDS011;14472;56.880;16.658;2022-07-29T09:13:32;1.15;;;0.50;;
26906;SDS011;14472;56.880;16.658;2022-07-29T09:15:58;2.20;;;0.82;;
26906;SDS011;14472;56.880;16.658;2022-07-29T09:18:34;1.63;;;0.70;;
26906;SDS011;14472;56.880;16.658;2022-07-29T09:21:08;1.35;;;0.60;;
26906;SDS011;14472;56.880;16.658;2022-07-29T09:24:10;0.60;;;0.60;;
26906;SDS011;14472;56.880;16.658;2022-07-29T09:26:41;0.60;;;0.50;;
26906;SDS011;14472;56.880;16.658;2022-07-29T09:29:13;0.95;;;0.60;;
26906;SDS011;14472;56.880;16.658;2022-07-29T09:31:44;0.60;;;0.60;;
26906;SDS011;14472;56.880;16.658;2022-07-29T09:34:12;0.82;;;0.60;;
26906;SDS011;14472;56.880;16.658;2022-07-29T09:36:44;0.98;;;0.80;;
26906;SDS011;14472;56.880;16.658;2022-07-29T09:39:14;1.42;;;0.70;;
26906;SDS011;14472;56.880;16.658;2022-07-29T09:41:54;0.60;;;0.60;;
26906;SDS011;14472;56.880;16.658;2022-07-29T09:44:21;1.10;;;0.70;;
26906;SDS011;14472;56.880;16.658;2022-07-29T09:49:19;1.63;;;0.70;;
26906;SDS011;14472;56.880;16.658;2022-07-29T09:51:45;0.88;;;0.70;;
26906;SDS011;14472;56.880;16.658;2022-07-29T09:54:24;0.73;;;0.63;;
26906;SDS011;14472;56.880;16.658;2022-07-29T09:56:51;0.90;;;0.60;;
26906;SDS011;14472;56.880;16.658;2022-07-29T09:59:17;1.27;;;0.70;;
26906;SDS011;14472;56.880;16.658;2022-07-29T10:01:45;1.75;;;0.70;;
26906;SDS011;14472;56.880;16.658;2022-07-29T10:04:13;2.08;;;0.70;;
26906;SDS011;14472;56.880;16.658;2022-07-29T10:07:00;0.93;;;0.70;;
26906;SDS011;14472;56.880;16.658;2022-07-29T10:09:25;1.98;;;0.52;;
26906;SDS011;14472;56.880;16.658;2022-07-29T10:14:39;0.57;;;0.50;;
26906;SDS011;14472;56.880;16.658;2022-07-29T10:17:06;0.80;;;0.60;;
26906;SDS011;14472;56.880;16.658;2022-07-29T10:19:33;0.55;;;0.50;;
26906;SDS011;14472;56.880;16.658;2022-07-29T10:22:01;1.13;;;0.60;;
26906;SDS011;14472;56.880;16.658;2022-07-29T10:24:29;1.05;;;0.60;;
26906;SDS011;14472;56.880;16.658;2022-07-29T10:26:56;0.93;;;0.63;;
26906;SDS011;14472;56.880;16.658;2022-07-29T10:29:24;1.70;;;0.55;;
26906;SDS011;14472;56.880;16.658;2022-07-29T10:37:42;0.40;;;0.40;;
26906;SDS011;14472;56.880;16.658;2022-07-29T10:40:36;0.50;;;0.50;;
26906;SDS011;14472;56.880;16.658;2022-07-29T10:43:44;0.57;;;0.40;;
26906;SDS011;14472;56.880;16.658;2022-07-29T10:46:12;0.73;;;0.60;;
26906;SDS011;14472;56.880;16.658;2022-07-29T10:59:42;0.60;;;0.60;;
26906;SDS011;14472;56.880;16.658;2022-07-29T11:02:55;0.75;;;0.50;;
26906;SDS011;14472;56.880;16.658;2022-07-29T11:05:05;0.30;;;0.30;;
26906;SDS011;14472;56.880;16.658;2022-07-29T11:07:33;2.35;;;0.63;;
26906;SDS011;14472;56.880;16.658;2022-07-29T11:26:13;3.08;;;1.05;;
26906;SDS011;14472;56.880;16.658;2022-07-29T11:34:11;2.17;;;0.90;;
26906;SDS011;14472;56.880;16.658;2022-07-29T11:39:39;2.25;;;0.88;;
26906;SDS011;14472;56.880;16.658;2022-07-29T11:45:05;5.65;;;1.20;;
26906;SDS011;14472;56.880;16.658;2022-07-29T11:47:54;3.67;;;1.00;;
26906;SDS011;14472;56.880;16.658;2022-07-29T11:50:35;3.90;;;1.33;;
26906;SDS011;14472;56.880;16.658;2022-07-29T11:53:02;2.38;;;0.98;;
26906;SDS011;14472;56.880;16.658;2022-07-29T11:55:35;2.70;;;0.82;;
26906;SDS011;14472;56.880;16.658;2022-07-29T11:58:03;2.47;;;1.00;;
26906;SDS011;14472;56.880;16.658;2022-07-29T12:03:04;4.35;;;1.10;;
26906;SDS011;14472;56.880;16.658;2022-07-29T12:05:53;1.60;;;1.00;;
26906;SDS011;14472;56.880;16.658;2022-07-29T12:08:20;3.72;;;1.17;;
26906;SDS011;14472;56.880;16.658;2022-07-29T12:10:48;2.30;;;0.98;;
26906;SDS011;14472;56.880;16.658;2022-07-29T12:13:17;3.10;;;1.05;;
26906;SDS011;14472;56.880;16.658;2022-07-29T12:15:57;4.55;;;1.10;;
26906;SDS011;14472;56.880;16.658;2022-07-29T12:18:23;2.00;;;0.90;;
26906;SDS011;14472;56.880;16.658;2022-07-29T12:20:55;1.95;;;0.80;;
26906;SDS011;14472;56.880;16.658;2022-07-29T12:23:29;1.98;;;0.82;;
26906;SDS011;14472;56.880;16.658;2022-07-29T12:25:57;2.65;;;0.90;;
26906;SDS011;14472;56.880;16.658;2022-07-29T12:28:23;1.90;;;0.80;;
26906;SDS011;14472;56.880;16.658;2022-07-29T12:30:49;2.08;;;0.98;;
26906;SDS011;14472;56.880;16.658;2022-07-29T12:35:57;1.73;;;0.93;;
26906;SDS011;14472;56.880;16.658;2022-07-29T12:38:24;2.67;;;0.80;;
26906;SDS011;14472;56.880;16.658;2022-07-29T12:40:52;1.85;;;0.82;;
26906;SDS011;14472;56.880;16.658;2022-07-29T12:43:20;3.97;;;1.00;;
26906;SDS011;14472;56.880;16.658;2022-07-29T12:45:50;2.92;;;1.40;;
26906;SDS011;14472;56.880;16.658;2022-07-29T12:48:32;2.65;;;0.90;;
26906;SDS011;14472;56.880;16.658;2022-07-29T12:51:05;2.70;;;0.80;;
26906;SDS011;14472;56.880;16.658;2022-07-29T12:53:36;0.40;;;0.40;;
26906;SDS011;14472;56.880;16.658;2022-07-29T12:56:03;0.80;;;0.80;;
26906;SDS011;14472;56.880;16.658;2022-07-29T12:58:40;0.60;;;0.60;;
26906;SDS011;14472;56.880;16.658;2022-07-29T13:01:10;1.75;;;1.30;;
26906;SDS011;14472;56.880;16.658;2022-07-29T13:03:58;0.52;;;0.50;;
26906;SDS011;14472;56.880;16.658;2022-07-29T13:09:15;1.05;;;0.70;;
26906;SDS011;14472;56.880;16.658;2022-07-29T13:11:47;0.77;;;0.60;;
26906;SDS011;14472;56.880;16.658;2022-07-29T13:14:29;1.40;;;0.70;;
26906;SDS011;14472;56.880;16.658;2022-07-29T13:19:32;0.70;;;0.65;;
26906;SDS011;14472;56.880;16.658;2022-07-29T13:21:59;0.80;;;0.52;;
26906;SDS011;14472;56.880;16.658;2022-07-29T13:24:25;0.50;;;0.50;;
26906;SDS011;14472;56.880;16.658;2022-07-29T13:26:50;1.42;;;0.77;;
26906;SDS011;14472;56.880;16.658;2022-07-29T13:29:17;0.60;;;0.60;;
26906;SDS011;14472;56.880;16.658;2022-07-29T13:31:42;1.50;;;0.70;;
26906;SDS011;14472;56.880;16.658;2022-07-29T13:34:09;1.65;;;0.73;;
26906;SDS011;14472;56.880;16.658;2022-07-29T13:36:35;0.98;;;0.80;;
26906;SDS011;14472;56.880;16.658;2022-07-29T13:39:01;1.67;;;0.75;;
26906;SDS011;14472;56.880;16.658;2022-07-29T13:41:28;0.60;;;0.60;;
26906;SDS011;14472;56.880;16.658;2022-07-29T13:43:54;0.90;;;0.80;;
26906;SDS011;14472;56.880;16.658;2022-07-29T13:46:19;2.38;;;0.73;;
26906;SDS011;14472;56.880;16.658;2022-07-29T13:48:46;0.70;;;0.60;;
26906;SDS011;14472;56.880;16.658;2022-07-29T13:51:12;0.95;;;0.68;;
26906;SDS011;14472;56.880;16.658;2022-07-29T13:53:38;0.82;;;0.55;;
26906;SDS011;14472;56.880;16.658;2022-07-29T13:56:04;0.60;;;0.60;;
26906;SDS011;14472;56.880;16.658;2022-07-29T13:58:33;0.98;;;0.70;;
26906;SDS011;14472;56.880;16.658;2022-07-29T14:00:59;1.75;;;1.00;;
26906;SDS011;14472;56.880;16.658;2022-07-29T14:03:25;1.15;;;0.60;;
26906;SDS011;14472;56.880;16.658;2022-07-29T14:05:51;1.15;;;0.90;;
26906;SDS011;14472;56.880;16.658;2022-07-29T14:08:17;1.65;;;1.38;;
26906;SDS011;14472;56.880;16.658;2022-07-29T14:10:43;1.70;;;0.70;;
26906;SDS011;14472;56.880;16.658;2022-07-29T14:13:09;1.88;;;0.70;;
26906;SDS011;14472;56.880;16.658;2022-07-29T14:15:35;0.98;;;0.75;;
26906;SDS011;14472;56.880;16.658;2022-07-29T14:18:01;1.05;;;0.73;;
26906;SDS011;14472;56.880;16.658;2022-07-29T14:20:27;2.38;;;0.65;;
26906;SDS011;14472;56.880;16.658;2022-07-29T14:22:56;0.63;;;0.60;;
26906;SDS011;14472;56.880;16.658;2022-07-29T14:25:22;0.80;;;0.73;;
26906;SDS011;14472;56.880;16.658;2022-07-29T14:27:48;1.60;;;1.00;;
26906;SDS011;14472;56.880;16.658;2022-07-29T14:30:14;1.25;;;0.73;;
26906;SDS011;14472;56.880;16.658;2022-07-29T14:32:40;0.75;;;0.60;;
26906;SDS011;14472;56.880;16.658;2022-07-29T14:35:06;1.05;;;0.70;;
26906;SDS011;14472;56.880;16.658;2022-07-29T14:37:33;1.05;;;0.68;;
26906;SDS011;14472;56.880;16.658;2022-07-29T14:40:00;0.82;;;0.60;;
26906;SDS011;14472;56.880;16.658;2022-07-29T14:42:28;0.85;;;0.80;;
26906;SDS011;14472;56.880;16.658;2022-07-29T14:44:56;1.40;;;0.70;;
26906;SDS011;14472;56.880;16.658;2022-07-29T14:47:22;0.95;;;0.60;;
26906;SDS011;14472;56.880;16.658;2022-07-29T14:49:48;1.42;;;0.80;;
26906;SDS011;14472;56.880;16.658;2022-07-29T14:52:14;2.22;;;0.80;;
26906;SDS011;14472;56.880;16.658;2022-07-29T14:54:40;0.57;;;0.50;;
26906;SDS011;14472;56.880;16.658;2022-07-29T14:57:06;1.45;;;0.60;;
26906;SDS011;14472;56.880;16.658;2022-07-29T14:59:32;1.38;;;0.63;;
26906;SDS011;14472;56.880;16.658;2022-07-29T15:01:58;1.20;;;0.70;;
26906;SDS011;14472;56.880;16.658;2022-07-29T15:04:23;0.98;;;0.65;;
26906;SDS011;14472;56.880;16.658;2022-07-29T15:06:49;3.03;;;0.70;;
26906;SDS011;14472;56.880;16.658;2022-07-29T15:09:16;0.60;;;0.60;;
26906;SDS011;14472;56.880;16.658;2022-07-29T15:11:41;3.15;;;0.90;;
26906;SDS011;14472;56.880;16.658;2022-07-29T15:14:07;0.77;;;0.60;;
26906;SDS011;14472;56.880;16.658;2022-07-29T15:16:35;0.80;;;0.40;;
26906;SDS011;14472;56.880;16.658;2022-07-29T15:19:02;1.27;;;0.70;;
26906;SDS011;14472;56.880;16.658;2022-07-29T15:21:28;0.73;;;0.50;;
26906;SDS011;14472;56.880;16.658;2022-07-29T15:23:54;0.60;;;0.60;;
26906;SDS011;14472;56.880;16.658;2022-07-29T15:26:20;1.33;;;0.85;;
26906;SDS011;14472;56.880;16.658;2022-07-29T15:28:46;1.10;;;0.80;;
26906;SDS011;14472;56.880;16.658;2022-07-29T15:31:12;2.13;;;0.80;;
26906;SDS011;14472;56.880;16.658;2022-07-29T15:33:38;1.67;;;0.60;;
26906;SDS011;14472;56.880;16.658;2022-07-29T15:36:09;0.95;;;0.65;;
26906;SDS011;14472;56.880;16.658;2022-07-29T15:38:37;2.45;;;0.95;;
26906;SDS011;14472;56.880;16.658;2022-07-29T15:41:05;1.77;;;0.90;;
26906;SDS011;14472;56.880;16.658;2022-07-29T15:43:34;2.05;;;0.98;;
26906;SDS011;14472;56.880;16.658;2022-07-29T15:46:00;2.28;;;0.85;;
26906;SDS011;14472;56.880;16.658;2022-07-29T15:48:45;1.50;;;0.73;;
26906;SDS011;14472;56.880;16.658;2022-07-29T15:51:11;1.02;;;0.70;;
26906;SDS011;14472;56.880;16.658;2022-07-29T15:53:36;1.70;;;0.68;;
26906;SDS011;14472;56.880;16.658;2022-07-29T15:56:02;1.02;;;0.60;;
26906;SDS011;14472;56.880;16.658;2022-07-29T15:58:28;0.80;;;0.68;;
26906;SDS011;14472;56.880;16.658;2022-07-29T16:00:54;0.85;;;0.70;;
26906;SDS011;14472;56.880;16.658;2022-07-29T16:03:20;1.02;;;0.80;;
26906;SDS011;14472;56.880;16.658;2022-07-29T16:05:47;1.50;;;0.88;;